Time;durP1;ratioP1;P1;durP2;ratioP2;P2;SDS_P1;SDS_P2;PMS_P1;PMS_P2;Temp;Humidity;BMP_temperature;BMP_pressure;BME280_temperature;BME280_humidity;BME280_pressure;Samples;Min_cycle;Max_cycle;Signal;HPM_P1;HPM_P2
2022/06/05 00:03:00;;;;;;;11.88;6.80;;;15.60;99.90;;;;;;4973600;28;20251;-70
2022/06/05 00:05:33;;;;;;;8.13;7.18;;;15.60;99.90;;;;;;5006483;28;20296;-70
2022/06/05 00:08:07;;;;;;;9.75;6.72;;;15.50;99.90;;;;;;4974572;28;20347;-70
2022/06/05 00:10:47;;;;;;;8.88;7.10;;;15.50;99.90;;;;;;4973904;28;20173;-70
2022/06/05 00:13:40;;;;;;;8.27;7.40;;;15.50;99.90;;;;;;4973810;28;20563;-71
2022/06/05 00:16:06;;;;;;;10.90;7.40;;;15.40;99.90;;;;;;4972970;28;20227;-72
2022/06/05 00:18:33;;;;;;;9.77;7.68;;;15.30;99.90;;;;;;4973129;28;20189;-72
2022/06/05 00:20:59;;;;;;;8.85;8.07;;;15.20;99.90;;;;;;4973707;28;20224;-72
2022/06/05 00:23:25;;;;;;;8.65;7.78;;;15.10;99.90;;;;;;4973394;28;20220;-71
2022/06/05 00:26:02;;;;;;;8.90;8.10;;;15.00;99.90;;;;;;4972922;28;20174;-72
2022/06/05 00:32:37;;;;;;;8.77;7.85;;;14.90;99.90;;;;;;4974320;28;20165;-71
2022/06/05 00:35:31;;;;;;;9.10;8.35;;;14.80;99.90;;;;;;4973082;28;20269;-72
2022/06/05 00:38:14;;;;;;;8.90;7.72;;;14.70;99.90;;;;;;4974063;28;20591;-72
2022/06/05 00:40:58;;;;;;;12.18;7.63;;;14.70;99.90;;;;;;4973413;28;20173;-72
2022/06/05 00:43:24;;;;;;;10.50;7.65;;;14.70;99.90;;;;;;4973577;28;20197;-72
2022/06/05 00:45:51;;;;;;;9.18;7.78;;;14.80;99.90;;;;;;4973297;28;20173;-72
2022/06/05 00:48:17;;;;;;;8.25;7.13;;;14.80;99.90;;;;;;4972437;28;20177;-72
2022/06/05 00:50:43;;;;;;;9.75;7.65;;;14.80;99.90;;;;;;4972436;28;20670;-72
2022/06/05 00:53:10;;;;;;;8.25;7.43;;;14.80;99.90;;;;;;4972546;28;20537;-72
2022/06/05 00:55:43;;;;;;;9.35;7.70;;;14.80;99.90;;;;;;4972584;28;20188;-72
2022/06/05 00:58:09;;;;;;;9.80;8.77;;;14.80;99.90;;;;;;4973764;28;20185;-72
2022/06/05 01:00:38;;;;;;;10.73;8.27;;;14.60;99.90;;;;;;4973081;28;20237;-72
2022/06/05 01:03:10;;;;;;;9.23;8.25;;;14.50;99.90;;;;;;4972478;28;20341;-72
2022/06/05 01:05:36;;;;;;;11.25;8.48;;;14.50;99.90;;;;;;4972268;28;20624;-72
2022/06/05 01:08:03;;;;;;;11.30;8.80;;;14.50;99.90;;;;;;4973029;28;20195;-72
2022/06/05 01:11:01;;;;;;;9.95;8.88;;;14.50;99.90;;;;;;4971997;28;20184;-72
2022/06/05 01:13:40;;;;;;;11.55;10.02;;;14.40;99.90;;;;;;4972013;28;20200;-72
2022/06/05 01:16:16;;;;;;;11.40;9.45;;;14.30;99.90;;;;;;4972117;28;20177;-72
2022/06/05 01:18:52;;;;;;;9.57;8.57;;;14.40;99.90;;;;;;4973287;28;20161;-71
2022/06/05 01:21:23;;;;;;;12.05;9.70;;;14.40;99.90;;;;;;4973228;28;20192;-70
2022/06/05 01:24:42;;;;;;;11.48;10.38;;;14.40;99.90;;;;;;4972952;28;20251;-70
2022/06/05 01:27:12;;;;;;;12.32;10.18;;;14.30;99.90;;;;;;4973380;28;20157;-70
2022/06/05 01:29:43;;;;;;;10.40;9.40;;;14.30;99.90;;;;;;4971989;28;20173;-70
2022/06/05 01:32:23;;;;;;;9.88;8.85;;;14.10;99.90;;;;;;4971869;28;20239;-70
2022/06/05 01:34:59;;;;;;;11.10;10.10;;;14.00;99.90;;;;;;4972490;28;20200;-70
2022/06/05 01:37:35;;;;;;;11.40;9.45;;;13.90;99.90;;;;;;4971871;28;20173;-70
2022/06/05 01:40:14;;;;;;;10.98;9.15;;;13.90;99.90;;;;;;4972962;28;20161;-70
2022/06/05 01:43:04;;;;;;;10.80;9.40;;;13.90;99.90;;;;;;4971590;28;20292;-70
2022/06/05 01:45:41;;;;;;;10.18;9.30;;;13.90;99.90;;;;;;4973303;28;20343;-70
2022/06/05 01:48:13;;;;;;;9.88;9.07;;;13.90;99.90;;;;;;4972818;28;20164;-70
2022/06/05 01:50:41;;;;;;;11.48;9.38;;;13.90;99.90;;;;;;4971506;28;20265;-70
2022/06/05 01:53:15;;;;;;;10.27;9.02;;;13.90;99.90;;;;;;4971388;28;20197;-70
2022/06/05 01:55:51;;;;;;;8.93;8.20;;;13.90;99.90;;;;;;4971495;28;20226;-70
2022/06/05 01:58:22;;;;;;;9.05;8.13;;;14.00;99.90;;;;;;4970634;28;20204;-70
2022/06/05 02:00:53;;;;;;;9.68;8.85;;;14.00;99.90;;;;;;4971432;28;20260;-70
2022/06/05 02:03:23;;;;;;;11.07;9.20;;;14.00;99.90;;;;;;4972465;28;20249;-70
2022/06/05 02:05:52;;;;;;;11.52;9.07;;;14.00;99.90;;;;;;4971625;28;20666;-70
2022/06/05 02:08:34;;;;;;;9.93;9.10;;;14.00;99.90;;;;;;4971263;28;20235;-70
2022/06/05 02:11:02;;;;;;;10.27;8.77;;;14.00;99.90;;;;;;4972758;28;20208;-70
2022/06/05 02:13:28;;;;;;;9.85;8.85;;;14.00;99.90;;;;;;4971135;28;20200;-70
2022/06/05 02:15:54;;;;;;;10.43;9.07;;;14.00;99.90;;;;;;4971509;28;20234;-70
2022/06/05 02:18:20;;;;;;;12.40;9.35;;;14.00;99.90;;;;;;4971394;28;20185;-70
2022/06/05 02:20:47;;;;;;;11.35;9.32;;;14.10;99.90;;;;;;4971005;28;20181;-70
2022/06/05 02:23:16;;;;;;;9.88;8.95;;;14.00;99.90;;;;;;4971226;28;20201;-70
2022/06/05 02:25:42;;;;;;;10.95;9.88;;;14.00;99.90;;;;;;4971307;28;20190;-70
2022/06/05 02:28:12;;;;;;;11.95;10.02;;;13.90;99.90;;;;;;4972762;28;20267;-70
2022/06/05 02:30:53;;;;;;;11.30;10.35;;;13.90;99.90;;;;;;4972409;28;20192;-70
2022/06/05 02:33:53;;;;;;;10.30;9.25;;;13.90;99.90;;;;;;4972098;28;20558;-71
2022/06/05 02:36:26;;;;;;;10.50;9.50;;;14.00;99.90;;;;;;4970987;28;20207;-71
2022/06/05 02:38:58;;;;;;;11.18;9.27;;;13.90;99.90;;;;;;4971206;28;20177;-71
2022/06/05 02:41:40;;;;;;;10.38;9.10;;;13.90;99.90;;;;;;4970843;28;20268;-71
2022/06/05 02:44:29;;;;;;;11.13;10.13;;;14.00;99.90;;;;;;4971470;28;20223;-71
2022/06/05 02:47:07;;;;;;;13.20;9.40;;;13.90;99.90;;;;;;4972063;28;20150;-71
2022/06/05 02:49:55;;;;;;;9.48;8.55;;;13.90;99.90;;;;;;4970620;28;20184;-71
2022/06/05 02:52:23;;;;;;;11.13;9.90;;;13.90;99.90;;;;;;4982382;28;20189;-71
2022/06/05 02:55:00;;;;;;;10.77;8.95;;;13.80;99.90;;;;;;4970992;28;20208;-71
2022/06/05 02:57:26;;;;;;;11.25;10.13;;;13.70;99.90;;;;;;4970686;28;20169;-71
2022/06/05 02:59:52;;;;;;;10.52;9.52;;;13.60;99.90;;;;;;4971823;28;20177;-71
2022/06/05 03:05:01;;;;;;;13.15;10.18;;;13.70;99.90;;;;;;4972021;28;20759;-71
2022/06/05 03:07:27;;;;;;;10.77;9.48;;;13.80;99.90;;;;;;4970492;28;20256;-71
2022/06/05 03:09:53;;;;;;;10.55;9.65;;;13.80;99.90;;;;;;4974014;28;20175;-71
2022/06/05 03:12:18;;;;;;;12.25;9.68;;;13.90;99.90;;;;;;4973958;28;20188;-71
2022/06/05 03:14:44;;;;;;;10.60;9.70;;;13.90;99.90;;;;;;4973845;28;20250;-71
2022/06/05 03:17:10;;;;;;;9.90;8.93;;;13.90;99.90;;;;;;4974979;28;20173;-71
2022/06/05 03:19:35;;;;;;;11.90;10.70;;;14.00;99.90;;;;;;4973853;28;20177;-71
2022/06/05 03:22:01;;;;;;;11.27;10.25;;;13.90;99.90;;;;;;4974646;28;20284;-71
2022/06/05 03:24:26;;;;;;;10.98;9.90;;;13.80;99.90;;;;;;4973963;28;20212;-71
2022/06/05 03:26:52;;;;;;;10.48;9.50;;;13.90;99.90;;;;;;4974441;28;20557;-71
2022/06/05 03:29:18;;;;;;;13.90;11.27;;;13.90;99.90;;;;;;4974455;28;20184;-71
2022/06/05 03:31:43;;;;;;;11.80;10.73;;;13.90;99.90;;;;;;4975606;28;20260;-71
2022/06/05 03:34:09;;;;;;;11.02;10.13;;;13.80;99.90;;;;;;4973492;28;20200;-71
2022/06/05 03:36:34;;;;;;;11.85;10.85;;;13.90;99.90;;;;;;4973599;28;20189;-71
2022/06/05 03:39:00;;;;;;;11.48;10.32;;;14.00;99.90;;;;;;4973872;28;20196;-71
2022/06/05 03:41:26;;;;;;;11.43;10.43;;;14.00;99.90;;;;;;4973468;28;20216;-71
2022/06/05 03:43:51;;;;;;;11.88;10.77;;;14.10;99.90;;;;;;4973780;28;20212;-71
2022/06/05 03:46:17;;;;;;;11.38;10.30;;;14.00;99.90;;;;;;4974908;28;20184;-71
2022/06/05 03:48:43;;;;;;;10.73;9.82;;;13.90;99.90;;;;;;4974239;28;20177;-71
2022/06/05 03:51:13;;;;;;;10.55;9.48;;;14.10;99.90;;;;;;4974823;28;20181;-71
2022/06/05 03:53:39;;;;;;;10.73;9.93;;;14.20;99.90;;;;;;4973568;28;20563;-71
2022/06/05 03:56:17;;;;;;;14.20;10.10;;;14.30;99.90;;;;;;4973602;28;20181;-71
2022/06/05 03:58:44;;;;;;;10.35;9.40;;;14.20;99.90;;;;;;4974733;28;20165;-71
2022/06/05 04:01:11;;;;;;;10.30;8.95;;;14.30;99.90;;;;;;4973328;28;20204;-71
2022/06/05 04:03:37;;;;;;;11.32;8.90;;;14.50;99.90;;;;;;4974233;28;20208;-71
2022/06/05 04:06:08;;;;;;;10.32;9.43;;;14.60;99.90;;;;;;4973071;28;20207;-71
2022/06/05 04:08:35;;;;;;;10.38;9.45;;;14.60;99.90;;;;;;4974531;28;20219;-71
2022/06/05 04:11:09;;;;;;;9.02;8.32;;;14.70;99.90;;;;;;4972932;28;20212;-71
2022/06/05 04:13:35;;;;;;;9.52;8.57;;;14.70;99.90;;;;;;4973665;28;20200;-71
2022/06/05 04:16:08;;;;;;;11.15;8.75;;;14.70;99.90;;;;;;4973839;28;20181;-71
2022/06/05 04:18:33;;;;;;;11.15;9.15;;;14.80;99.90;;;;;;4972982;28;20181;-71
2022/06/05 04:20:59;;;;;;;9.63;8.55;;;14.90;99.90;;;;;;4973372;28;20188;-71
2022/06/05 04:23:24;;;;;;;9.15;8.18;;;15.00;99.90;;;;;;4972680;28;20204;-71
2022/06/05 04:25:50;;;;;;;9.30;8.43;;;14.90;99.90;;;;;;4973168;28;20640;-71
2022/06/05 04:28:15;;;;;;;9.40;8.70;;;15.00;99.90;;;;;;4972795;28;20184;-71
2022/06/05 04:30:41;;;;;;;8.50;7.88;;;15.00;99.90;;;;;;4973052;28;20195;-71
2022/06/05 04:33:07;;;;;;;9.23;8.20;;;15.20;99.90;;;;;;4973892;28;20648;-70
2022/06/05 04:35:34;;;;;;;12.32;8.82;;;15.30;99.90;;;;;;4972743;28;20177;-70
2022/06/05 04:37:59;;;;;;;9.27;8.20;;;15.40;99.90;;;;;;4972632;28;20188;-70
2022/06/05 04:40:26;;;;;;;10.00;9.10;;;15.30;99.90;;;;;;4972698;28;20536;-70
2022/06/05 04:42:53;;;;;;;11.60;9.10;;;15.40;99.90;;;;;;4972815;28;20200;-71
2022/06/05 04:45:19;;;;;;;9.52;8.57;;;15.20;99.90;;;;;;4972479;28;20699;-71
2022/06/05 04:47:46;;;;;;;9.38;8.48;;;15.20;99.90;;;;;;4972553;28;20177;-71
2022/06/05 04:50:12;;;;;;;9.68;8.88;;;15.30;99.90;;;;;;4973759;28;20240;-71
2022/06/05 04:52:37;;;;;;;10.27;8.65;;;15.30;99.90;;;;;;4972371;28;20185;-71
2022/06/05 04:55:03;;;;;;;9.02;8.32;;;15.30;99.90;;;;;;4972227;28;20554;-71
2022/06/05 04:57:29;;;;;;;10.30;9.38;;;15.30;99.90;;;;;;4972617;28;20404;-71
2022/06/05 04:59:54;;;;;;;9.90;9.00;;;15.40;99.90;;;;;;4973177;28;20181;-71
2022/06/05 05:02:20;;;;;;;9.30;8.43;;;15.40;99.90;;;;;;4972200;28;20184;-71
2022/06/05 05:04:49;;;;;;;10.10;8.88;;;15.30;99.90;;;;;;4972176;28;20296;-71
2022/06/05 05:07:16;;;;;;;9.70;8.75;;;15.50;99.90;;;;;;4972199;28;20177;-71
2022/06/05 05:09:41;;;;;;;9.32;8.32;;;15.80;99.90;;;;;;4972827;28;20177;-71
2022/06/05 05:12:43;;;;;;;9.00;8.30;;;16.00;99.90;;;;;;4973314;28;20264;-71
2022/06/05 05:15:10;;;;;;;8.50;7.72;;;16.30;99.90;;;;;;4973220;28;20285;-71
2022/06/05 05:17:36;;;;;;;8.88;7.97;;;16.60;99.90;;;;;;4972879;28;20191;-71
2022/06/05 05:20:02;;;;;;;7.43;6.72;;;16.80;99.90;;;;;;4972592;28;20177;-71
2022/06/05 05:22:28;;;;;;;8.60;7.82;;;17.00;99.90;;;;;;4972749;28;20193;-71
2022/06/05 05:24:53;;;;;;;12.25;7.90;;;17.20;99.90;;;;;;4971908;28;20205;-71
2022/06/05 05:27:20;;;;;;;7.60;6.90;;;17.30;99.90;;;;;;4973381;28;20268;-71
2022/06/05 05:29:46;;;;;;;8.35;7.50;;;17.40;99.90;;;;;;4971875;28;20203;-71
2022/06/05 05:32:12;;;;;;;8.40;7.57;;;17.50;99.90;;;;;;4970723;28;20173;-71
2022/06/05 05:34:38;;;;;;;8.05;7.25;;;17.60;99.90;;;;;;4971667;28;20197;-72
2022/06/05 05:37:04;;;;;;;8.25;7.55;;;17.80;99.90;;;;;;4971774;28;20242;-73
2022/06/05 05:42:14;;;;;;;10.18;7.97;;;18.10;99.90;;;;;;4973396;28;20188;-72
2022/06/05 05:44:46;;;;;;;8.50;7.90;;;18.50;99.90;;;;;;4972854;28;20225;-72
2022/06/05 05:47:15;;;;;;;8.35;7.72;;;18.60;99.90;;;;;;4971968;28;20185;-72
2022/06/05 05:49:41;;;;;;;8.40;7.60;;;18.90;99.90;;;;;;4971797;28;20185;-72
2022/06/05 05:52:08;;;;;;;8.20;7.55;;;19.10;99.90;;;;;;4972309;28;20701;-72
2022/06/05 05:54:45;;;;;;;8.35;7.38;;;19.20;99.90;;;;;;4971680;28;20248;-72
2022/06/05 05:57:11;;;;;;;7.85;7.15;;;19.40;99.90;;;;;;4971539;28;20268;-72
2022/06/05 05:59:37;;;;;;;8.73;7.97;;;19.50;99.90;;;;;;4971421;28;20209;-72
2022/06/05 06:02:06;;;;;;;7.78;7.07;;;19.60;99.90;;;;;;4972588;28;20169;-72
2022/06/05 06:04:31;;;;;;;7.28;6.68;;;19.70;99.90;;;;;;4971784;28;20243;-72
2022/06/05 06:06:57;;;;;;;8.00;7.20;;;19.90;99.90;;;;;;4971353;28;20181;-72
2022/06/05 06:09:23;;;;;;;7.47;6.80;;;20.00;99.90;;;;;;4971247;28;20207;-72
2022/06/05 06:11:48;;;;;;;6.80;6.22;;;20.00;99.90;;;;;;4971577;28;20177;-72
2022/06/05 06:14:14;;;;;;;7.03;5.97;;;19.90;99.90;;;;;;4972951;28;20201;-72
2022/06/05 06:16:39;;;;;;;5.88;5.38;;;20.10;99.90;;;;;;4972042;28;20185;-72
2022/06/05 06:19:05;;;;;;;5.85;5.30;;;20.40;99.90;;;;;;4971740;28;20253;-72
2022/06/05 06:21:44;;;;;;;5.90;5.38;;;20.60;99.90;;;;;;4972664;28;20259;-72
2022/06/05 06:25:01;;;;;;;5.75;5.35;;;20.90;98.70;;;;;;4972172;28;20640;-73
2022/06/05 06:27:27;;;;;;;5.40;5.00;;;21.10;98.70;;;;;;4971873;28;20219;-73
2022/06/05 06:29:52;;;;;;;5.82;5.32;;;21.30;98.10;;;;;;4972070;28;20212;-73
2022/06/05 06:32:18;;;;;;;6.65;5.40;;;21.30;96.60;;;;;;4971362;28;20177;-71
2022/06/05 06:34:48;;;;;;;6.55;4.95;;;21.40;97.20;;;;;;4972901;28;20610;-72
2022/06/05 06:37:13;;;;;;;5.57;5.05;;;21.70;96.20;;;;;;4971915;28;20157;-72
2022/06/05 06:39:39;;;;;;;5.53;5.00;;;21.80;96.00;;;;;;4971679;28;20591;-72
2022/06/05 06:42:04;;;;;;;6.00;5.50;;;21.80;94.30;;;;;;4970894;28;20198;-71
2022/06/05 06:44:30;;;;;;;5.68;5.28;;;21.90;94.80;;;;;;4970510;28;20231;-71
2022/06/05 06:46:56;;;;;;;5.47;5.07;;;22.00;93.90;;;;;;4971007;28;20184;-71
2022/06/05 06:49:21;;;;;;;5.60;5.13;;;22.00;93.70;;;;;;4972238;28;20230;-71
2022/06/05 06:51:47;;;;;;;5.75;5.25;;;22.00;92.70;;;;;;4970752;28;20276;-71
2022/06/05 06:54:14;;;;;;;6.35;5.65;;;22.10;93.70;;;;;;4972067;28;20327;-71
2022/06/05 06:56:41;;;;;;;5.68;5.18;;;22.20;93.20;;;;;;4971815;28;20261;-71
2022/06/05 06:59:07;;;;;;;5.50;5.00;;;22.40;93.20;;;;;;4970485;28;20181;-71
2022/06/05 07:01:33;;;;;;;6.18;5.50;;;22.30;93.00;;;;;;4971134;28;20183;-71
2022/06/05 07:03:58;;;;;;;6.70;6.10;;;22.30;94.00;;;;;;4970710;28;20215;-71
2022/06/05 07:06:24;;;;;;;6.22;5.72;;;22.40;94.40;;;;;;4970667;28;20282;-71
2022/06/05 07:08:49;;;;;;;6.72;5.85;;;22.40;94.50;;;;;;4970528;28;20640;-72
2022/06/05 07:11:16;;;;;;;7.55;6.93;;;22.50;94.40;;;;;;4971609;28;20184;-72
2022/06/05 07:17:04;;;;;;;6.85;6.30;;;22.60;94.70;;;;;;4971938;28;20156;-72
2022/06/05 07:19:30;;;;;;;7.15;6.50;;;22.80;93.50;;;;;;4971809;28;20181;-72
2022/06/05 07:25:18;;;;;;;7.13;6.55;;;23.10;91.60;;;;;;4971794;28;20215;-72
2022/06/05 07:27:43;;;;;;;7.55;6.85;;;22.90;92.30;;;;;;4971129;28;20256;-72
2022/06/05 07:33:31;;;;;;;7.88;7.15;;;23.30;91.50;;;;;;4971629;28;20267;-70
2022/06/05 07:35:58;;;;;;;6.60;6.10;;;23.50;90.60;;;;;;4970228;28;20178;-70
2022/06/05 07:38:24;;;;;;;7.25;6.53;;;23.70;90.80;;;;;;4971322;28;20717;-72
2022/06/05 07:40:49;;;;;;;7.53;6.82;;;23.60;90.20;;;;;;4970461;28;20189;-73
2022/06/05 07:43:15;;;;;;;6.88;6.15;;;23.50;89.40;;;;;;4969955;28;20212;-72
2022/06/05 07:45:44;;;;;;;6.90;6.40;;;23.40;90.60;;;;;;4970093;28;20641;-72
2022/06/05 07:48:10;;;;;;;6.47;5.88;;;23.30;90.30;;;;;;4971083;28;20211;-72
2022/06/05 07:56:36;;;;;;;6.55;5.90;;;23.10;90.40;;;;;;4973361;28;20204;-73
2022/06/05 07:59:02;;;;;;;6.03;5.63;;;22.50;91.30;;;;;;4973937;28;20189;-72
2022/06/05 08:01:28;;;;;;;6.60;6.00;;;22.30;91.60;;;;;;4973113;28;20242;-72
2022/06/05 08:03:54;;;;;;;6.15;5.75;;;22.30;92.20;;;;;;4974795;28;20307;-70
2022/06/05 08:09:42;;;;;;;6.47;5.88;;;22.00;92.40;;;;;;4974687;28;20159;-72
2022/06/05 08:12:32;;;;;;;7.15;6.53;;;21.80;93.20;;;;;;4973350;28;20188;-73
2022/06/05 08:15:06;;;;;;;7.60;6.93;;;21.50;93.70;;;;;;4973607;28;20196;-71
2022/06/05 08:17:32;;;;;;;7.82;7.22;;;21.20;94.70;;;;;;4973083;28;20181;-71
2022/06/05 08:19:59;;;;;;;8.15;7.22;;;20.90;96.20;;;;;;4974645;28;20188;-72
2022/06/05 08:22:26;;;;;;;6.93;6.32;;;20.70;97.50;;;;;;4973695;28;20537;-72
2022/06/05 08:24:52;;;;;;;7.00;6.40;;;20.60;99.20;;;;;;4974769;28;20193;-72
2022/06/05 08:27:23;;;;;;;6.95;6.30;;;20.50;99.60;;;;;;4973306;28;20713;-72
2022/06/05 08:29:49;;;;;;;7.45;6.65;;;20.50;99.90;;;;;;4974475;28;20153;-72
2022/06/05 08:32:16;;;;;;;7.22;6.53;;;20.60;99.90;;;;;;4973466;28;20184;-72
2022/06/05 08:34:43;;;;;;;6.90;6.30;;;20.70;99.90;;;;;;4973479;28;20302;-72
2022/06/05 08:43:12;;;;;;;7.10;6.40;;;20.60;99.90;;;;;;4974495;28;20246;-70
2022/06/05 08:45:59;;;;;;;6.80;6.30;;;20.60;99.90;;;;;;4973469;28;20214;-70
2022/06/05 08:48:46;;;;;;;7.13;6.63;;;20.50;99.90;;;;;;4973649;28;20169;-70
2022/06/05 08:51:11;;;;;;;7.97;6.70;;;20.60;99.90;;;;;;4973120;28;20165;-70
2022/06/05 08:53:52;;;;;;;7.60;6.78;;;20.60;99.90;;;;;;4972306;28;20217;-70
2022/06/05 08:57:00;;;;;;;7.05;6.55;;;20.60;99.90;;;;;;4972782;28;20620;-70
2022/06/05 08:59:38;;;;;;;7.55;6.95;;;20.60;99.90;;;;;;4973291;28;20535;-71
2022/06/05 09:02:22;;;;;;;7.38;6.75;;;20.70;99.90;;;;;;4972384;28;20195;-70
2022/06/05 09:04:57;;;;;;;7.60;7.00;;;20.80;99.90;;;;;;4972526;28;20201;-70
2022/06/05 09:07:39;;;;;;;7.88;6.93;;;20.90;99.90;;;;;;4972369;28;20624;-70
2022/06/05 09:10:15;;;;;;;7.47;6.72;;;20.80;99.90;;;;;;4972175;28;20579;-70
2022/06/05 09:12:48;;;;;;;6.55;6.00;;;20.90;99.90;;;;;;4974177;28;20247;-70
2022/06/05 09:15:35;;;;;;;6.40;5.88;;;21.00;99.90;;;;;;4972055;28;20672;-70
2022/06/05 09:18:02;;;;;;;6.57;6.07;;;21.00;99.90;;;;;;4973302;28;20169;-71
2022/06/05 09:20:49;;;;;;;6.93;5.82;;;21.00;99.90;;;;;;4972097;28;20177;-71
2022/06/05 09:23:34;;;;;;;6.30;5.80;;;21.20;99.90;;;;;;4973005;28;20196;-71
2022/06/05 09:26:13;;;;;;;6.35;5.85;;;21.30;99.90;;;;;;4972920;28;20588;-71
2022/06/05 09:29:22;;;;;;;6.80;6.30;;;21.30;99.90;;;;;;4971909;28;20275;-72
2022/06/05 09:32:01;;;;;;;7.43;6.32;;;21.40;99.90;;;;;;4973177;28;20173;-72
2022/06/05 09:35:06;;;;;;;7.70;6.93;;;21.20;99.90;;;;;;4972113;28;20287;-71
2022/06/05 09:38:11;;;;;;;7.38;6.78;;;21.10;99.90;;;;;;4971913;28;20184;-71
2022/06/05 09:40:42;;;;;;;7.07;6.38;;;21.00;99.90;;;;;;5012339;28;20189;-72
2022/06/05 09:43:26;;;;;;;7.07;6.47;;;21.00;99.90;;;;;;4971650;28;20197;-72
2022/06/05 09:46:10;;;;;;;7.90;7.25;;;21.30;99.90;;;;;;4972552;28;20215;-72
2022/06/05 09:49:23;;;;;;;9.65;7.00;;;21.60;99.90;;;;;;4971644;28;20172;-72
2022/06/05 09:52:40;;;;;;;6.80;6.20;;;21.90;99.90;;;;;;4972504;28;20235;-77
2022/06/05 09:55:39;;;;;;;6.68;6.18;;;22.40;99.90;;;;;;4972523;28;20232;-72
2022/06/05 09:58:27;;;;;;;7.32;6.00;;;23.00;98.20;;;;;;4972393;28;20173;-72
2022/06/05 10:00:58;;;;;;;7.95;6.20;;;23.40;96.80;;;;;;4972492;28;20176;-73
2022/06/05 10:03:42;;;;;;;6.88;6.20;;;23.60;94.70;;;;;;4971311;28;20664;-73
2022/06/05 10:06:53;;;;;;;6.35;5.75;;;23.70;94.10;;;;;;4972554;28;20281;-72
2022/06/05 10:09:23;;;;;;;6.85;5.57;;;23.90;93.60;;;;;;4971415;28;20230;-72
2022/06/05 10:11:56;;;;;;;8.68;5.85;;;24.30;92.90;;;;;;4971238;28;20204;-72
2022/06/05 10:14:50;;;;;;;6.00;5.50;;;24.30;91.10;;;;;;4971420;28;20338;-72
2022/06/05 10:17:39;;;;;;;6.05;5.53;;;24.20;91.00;;;;;;4971199;28;20177;-72
2022/06/05 10:20:14;;;;;;;6.80;5.93;;;24.10;90.80;;;;;;4970759;28;20181;-72
2022/06/05 10:22:39;;;;;;;6.03;5.40;;;23.90;91.40;;;;;;4971119;28;20177;-72
2022/06/05 10:25:17;;;;;;;6.75;6.15;;;23.90;91.00;;;;;;4971427;28;20269;-72
2022/06/05 10:27:59;;;;;;;6.05;5.55;;;24.00;91.70;;;;;;4972446;28;20631;-72
2022/06/05 10:30:33;;;;;;;8.25;6.45;;;23.90;91.80;;;;;;4971098;28;20173;-72
2022/06/05 10:33:06;;;;;;;6.50;6.00;;;23.70;91.10;;;;;;4971029;28;20235;-72
2022/06/05 10:35:44;;;;;;;8.00;6.80;;;23.60;91.90;;;;;;4972414;28;20230;-72
2022/06/05 10:38:27;;;;;;;6.30;5.80;;;23.60;92.30;;;;;;4970938;28;20219;-72
2022/06/05 10:41:44;;;;;;;6.40;5.80;;;23.60;92.40;;;;;;4970910;28;20181;-72
2022/06/05 10:44:24;;;;;;;8.55;6.25;;;23.40;92.20;;;;;;4972306;28;20288;-74
2022/06/05 10:47:04;;;;;;;6.25;5.70;;;23.60;93.10;;;;;;4971721;28;20165;-71
2022/06/05 10:49:30;;;;;;;6.63;6.10;;;23.60;92.20;;;;;;4970740;28;20193;-71
2022/06/05 10:52:13;;;;;;;7.07;6.57;;;23.50;92.50;;;;;;4970824;28;20215;-73
2022/06/05 10:55:17;;;;;;;7.93;6.28;;;23.40;92.80;;;;;;4972037;28;20295;-73
2022/06/05 11:01:21;;;;;;;10.40;6.30;;;23.40;92.70;;;;;;5008064;28;20242;-73
2022/06/05 11:04:40;;;;;;;6.72;6.13;;;23.40;92.80;;;;;;4972019;28;20235;-72
2022/06/05 11:14:18;;;;;;;10.27;6.47;;;23.60;93.30;;;;;;4972489;28;20223;-72
2022/06/05 11:16:59;;;;;;;6.95;6.20;;;23.70;92.80;;;;;;4970827;28;20176;-72
2022/06/05 11:20:08;;;;;;;6.05;5.55;;;23.70;92.70;;;;;;4971160;28;20177;-72
2022/06/05 11:22:37;;;;;;;6.05;5.55;;;23.80;92.80;;;;;;4970735;28;20196;-72
2022/06/05 11:25:25;;;;;;;6.53;6.03;;;24.00;92.90;;;;;;4969805;28;20223;-71
2022/06/05 11:28:08;;;;;;;6.15;5.75;;;23.90;92.20;;;;;;4970294;28;20232;-72
2022/06/05 11:30:43;;;;;;;7.00;6.22;;;23.60;92.70;;;;;;4972961;28;20183;-72
2022/06/05 11:33:23;;;;;;;7.53;6.55;;;23.40;93.50;;;;;;4974687;28;20180;-74
2022/06/05 11:36:13;;;;;;;7.50;6.80;;;23.30;94.30;;;;;;4975443;28;20234;-74
2022/06/05 11:38:51;;;;;;;6.93;6.32;;;23.20;94.50;;;;;;4973645;28;20185;-73
2022/06/05 11:41:38;;;;;;;6.68;6.10;;;23.10;94.30;;;;;;4973487;28;20176;-73
2022/06/05 11:44:12;;;;;;;6.10;5.60;;;23.20;95.00;;;;;;4974919;28;20212;-72
2022/06/05 11:46:58;;;;;;;6.47;5.97;;;23.30;95.10;;;;;;4974273;28;20177;-72
2022/06/05 11:49:49;;;;;;;6.57;6.10;;;23.40;94.60;;;;;;4974295;28;20184;-72
2022/06/05 11:52:26;;;;;;;6.93;6.03;;;23.50;94.60;;;;;;4974245;28;20181;-72
2022/06/05 11:55:37;;;;;;;6.55;5.95;;;23.60;94.40;;;;;;4973119;28;20229;-73
2022/06/05 11:58:25;;;;;;;6.75;6.22;;;23.70;94.70;;;;;;4973386;28;20246;-73
2022/06/05 12:01:01;;;;;;;8.50;6.30;;;23.80;94.40;;;;;;4974097;28;20181;-73
2022/06/05 12:03:41;;;;;;;7.85;6.65;;;23.90;94.10;;;;;;4973169;28;20296;-72
2022/06/05 12:06:49;;;;;;;7.03;6.43;;;23.90;92.90;;;;;;4973209;28;20271;-72
2022/06/05 12:09:27;;;;;;;6.70;6.20;;;24.20;93.50;;;;;;5054194;28;20178;-72
2022/06/05 12:12:17;;;;;;;7.10;6.47;;;24.20;92.90;;;;;;4977481;28;20195;-72
2022/06/05 12:14:50;;;;;;;7.00;6.40;;;24.40;92.80;;;;;;4973579;28;20197;-73
2022/06/05 12:17:41;;;;;;;7.00;6.40;;;24.40;92.60;;;;;;4974159;28;20200;-73
2022/06/05 12:20:31;;;;;;;7.20;6.50;;;24.30;92.50;;;;;;4974483;28;20172;-73
2022/06/05 12:23:24;;;;;;;6.80;6.20;;;24.30;92.60;;;;;;4974328;28;20640;-73
2022/06/05 12:26:00;;;;;;;7.28;6.70;;;24.40;92.90;;;;;;4973800;28;20534;-73
2022/06/05 12:28:38;;;;;;;7.63;6.97;;;24.40;92.80;;;;;;4973716;28;20173;-73
2022/06/05 12:31:29;;;;;;;7.00;6.50;;;24.40;93.00;;;;;;4974337;28;20207;-73
2022/06/05 12:34:10;;;;;;;7.20;6.70;;;24.30;93.20;;;;;;4972797;28;20710;-73
2022/06/05 12:37:02;;;;;;;7.32;6.70;;;24.30;93.30;;;;;;4972611;28;20204;-73
2022/06/05 12:39:33;;;;;;;7.32;6.60;;;24.40;93.20;;;;;;4972700;28;20279;-73
2022/06/05 12:42:26;;;;;;;7.28;6.55;;;24.40;93.50;;;;;;4972127;28;20173;-73
2022/06/05 12:44:55;;;;;;;7.18;6.68;;;24.30;94.20;;;;;;4972883;28;20212;-72
2022/06/05 12:47:50;;;;;;;7.28;6.68;;;24.40;94.50;;;;;;4973318;28;20200;-72
2022/06/05 12:50:19;;;;;;;7.82;7.10;;;24.30;94.50;;;;;;4973783;28;20169;-72
2022/06/05 12:53:03;;;;;;;7.82;7.22;;;24.20;94.70;;;;;;4973158;28;20184;-72
2022/06/05 12:55:36;;;;;;;7.72;7.03;;;24.20;95.20;;;;;;4972906;28;20314;-72
2022/06/05 12:58:08;;;;;;;8.25;7.57;;;24.10;95.30;;;;;;4973613;28;20617;-73
2022/06/05 13:00:41;;;;;;;8.32;7.65;;;24.00;96.20;;;;;;4973549;28;20239;-73
2022/06/05 13:04:01;;;;;;;7.80;7.10;;;24.00;96.40;;;;;;4972386;28;20228;-73
2022/06/05 13:06:41;;;;;;;8.02;7.43;;;24.10;97.20;;;;;;5005655;28;20181;-73
2022/06/05 13:09:40;;;;;;;8.57;7.82;;;24.00;97.90;;;;;;4973820;28;20157;-73
2022/06/05 13:12:21;;;;;;;7.80;7.13;;;23.90;98.80;;;;;;4979734;28;20181;-73
2022/06/05 13:15:05;;;;;;;8.27;7.68;;;23.90;99.10;;;;;;4972645;28;20258;-73
2022/06/05 13:17:34;;;;;;;7.35;6.82;;;23.90;99.10;;;;;;4972896;28;20173;-73
2022/06/05 13:20:31;;;;;;;8.63;7.82;;;24.00;99.80;;;;;;4972758;28;20170;-73
2022/06/05 13:23:31;;;;;;;7.90;7.15;;;24.10;99.90;;;;;;4972070;28;20644;-73
2022/06/05 13:26:12;;;;;;;7.28;6.70;;;24.10;99.90;;;;;;4972344;28;20183;-73
2022/06/05 13:28:56;;;;;;;8.50;7.70;;;24.40;99.50;;;;;;4973449;28;20157;-72
2022/06/05 13:31:44;;;;;;;7.35;6.78;;;24.30;99.90;;;;;;4972793;28;20178;-72
2022/06/05 13:34:09;;;;;;;7.50;7.00;;;24.20;99.90;;;;;;4972089;28;20679;-72
2022/06/05 13:36:54;;;;;;;8.15;7.53;;;24.30;99.90;;;;;;4972017;28;20188;-72
2022/06/05 13:39:50;;;;;;;8.18;7.47;;;24.30;99.90;;;;;;4973286;28;20261;-72
2022/06/05 13:42:22;;;;;;;8.18;7.45;;;24.30;99.90;;;;;;5000294;28;20550;-72
2022/06/05 13:44:57;;;;;;;7.88;7.30;;;24.40;99.90;;;;;;4972320;28;20593;-72
2022/06/05 13:47:32;;;;;;;7.50;7.00;;;24.50;99.50;;;;;;4972412;28;20173;-72
2022/06/05 13:50:26;;;;;;;7.18;6.70;;;24.70;99.70;;;;;;4971690;28;20546;-72
2022/06/05 13:53:00;;;;;;;7.35;6.75;;;24.90;97.30;;;;;;4971094;28;20555;-72
2022/06/05 13:55:36;;;;;;;7.80;7.05;;;25.20;96.90;;;;;;4971635;28;20269;-72
2022/06/05 13:58:25;;;;;;;8.20;7.55;;;25.40;96.50;;;;;;4972420;28;20246;-72
2022/06/05 14:01:03;;;;;;;6.80;6.30;;;25.30;96.20;;;;;;4972633;28;20219;-72
2022/06/05 14:03:47;;;;;;;7.68;7.07;;;25.00;96.60;;;;;;4972536;28;20209;-72
2022/06/05 14:06:19;;;;;;;6.95;6.45;;;24.90;97.00;;;;;;4972874;28;20164;-72
2022/06/05 14:08:51;;;;;;;7.70;6.82;;;24.90;97.10;;;;;;4972537;28;20644;-72
2022/06/05 14:11:21;;;;;;;7.07;6.45;;;24.80;96.90;;;;;;4972555;28;20173;-72